createdAt,value
2018-09-25T03:01:08.725Z,97.83
2018-09-25T03:02:08.620Z,97.73
2018-09-25T03:03:08.224Z,98.02
2018-09-25T03:04:08.362Z,98.30
2018-09-25T03:05:09.040Z,98.77
2018-09-25T03:06:09.427Z,98.87
2018-09-25T03:07:09.129Z,98.68
2018-09-25T03:08:09.457Z,99.34
2018-09-25T03:09:09.652Z,99.25
2018-09-25T03:10:10.053Z,99.15
2018-09-25T03:11:10.180Z,99.91
2018-09-25T03:12:10.046Z,99.72
2018-09-25T03:13:10.484Z,99.34
2018-09-25T03:14:10.119Z,99.06
2018-09-25T03:16:10.629Z,98.58
2018-09-25T03:17:08.992Z,98.96
2018-09-25T03:18:08.570Z,99.53
2018-09-25T03:19:08.701Z,99.53
2018-09-25T03:20:08.796Z,98.49
2018-09-25T03:21:08.956Z,98.21
2018-09-25T03:22:10.525Z,98.30
2018-09-25T03:23:09.140Z,98.11
2018-09-25T03:24:09.423Z,98.77
2018-09-25T03:25:09.714Z,99.01
2018-09-25T03:26:09.962Z,98.35
2018-09-25T03:27:09.969Z,98.63
2018-09-25T03:28:10.345Z,99.29
2018-09-25T03:29:10.428Z,99.10
2018-09-25T03:30:10.569Z,99.01
2018-09-25T03:31:10.740Z,99.01
2018-09-25T03:32:10.940Z,99.29
2018-09-25T03:33:11.507Z,98.91
2018-09-25T03:34:11.173Z,99.20
2018-09-25T03:35:11.550Z,98.82
2018-09-25T03:36:11.617Z,99.01
2018-09-25T03:37:12.311Z,99.10
2018-09-25T03:38:12.968Z,99.29
2018-09-25T03:39:12.230Z,99.29
2018-09-25T03:40:12.460Z,99.29
2018-09-25T03:41:12.641Z,99.29
2018-09-25T03:42:12.994Z,99.39
2018-09-25T03:43:13.462Z,99.01
2018-09-25T03:44:13.576Z,99.29
2018-09-25T03:45:14.074Z,99.29
2018-09-25T03:46:13.734Z,98.82
2018-09-25T03:47:14.080Z,98.91
2018-09-25T03:48:14.170Z,98.44
2018-09-25T03:49:14.383Z,99.01
2018-09-25T03:50:14.745Z,99.20
2018-09-25T03:51:15.907Z,98.91
2018-09-25T03:52:15.059Z,99.96
2018-09-25T03:53:15.248Z,99.48
2018-09-25T03:54:15.010Z,99.10
2018-09-25T03:55:15.239Z,99.20
2018-09-25T03:56:15.483Z,99.20
2018-09-25T03:57:16.562Z,99.10
2018-09-25T03:58:15.753Z,98.35
2018-09-25T03:59:16.401Z,98.44
2018-09-25T04:00:16.206Z,98.44
2018-09-25T04:01:16.788Z,98.82
2018-09-25T04:02:16.347Z,98.63
2018-09-25T04:03:17.324Z,99.39
2018-09-25T04:04:16.870Z,99.01
2018-09-25T04:05:16.885Z,99.77
2018-09-25T04:06:17.154Z,99.96
2018-09-25T04:07:17.314Z,99.99
2018-09-25T04:08:17.402Z,99.99
2018-09-25T04:09:17.806Z,99.99
2018-09-25T04:10:18.081Z,99.99
2018-09-25T04:11:18.397Z,99.99
2018-09-25T04:12:18.159Z,99.99
2018-09-25T04:13:18.378Z,99.99
2018-09-25T04:14:18.718Z,99.99
2018-09-25T04:15:18.789Z,99.99
2018-09-25T04:16:18.915Z,99.99
2018-09-25T04:17:19.080Z,99.99
2018-09-25T04:18:19.205Z,99.99
2018-09-25T04:19:19.431Z,99.99
2018-09-25T04:20:20.165Z,99.99
2018-09-25T04:21:19.763Z,99.99
2018-09-25T04:22:19.923Z,99.86
2018-09-25T04:23:20.247Z,99.77
2018-09-25T04:24:20.358Z,99.20
2018-09-25T04:25:20.442Z,99.10
2018-09-25T04:26:20.673Z,99.29
2018-09-25T04:27:20.616Z,99.01
2018-09-25T04:28:20.883Z,99.39
2018-09-25T04:29:21.084Z,99.20
2018-09-25T04:30:21.393Z,99.10
2018-09-25T04:31:21.477Z,99.39
2018-09-25T04:32:21.601Z,99.39
2018-09-25T04:33:21.934Z,99.39
2018-09-25T04:34:22.034Z,99.39
2018-09-25T04:35:22.039Z,99.10
2018-09-25T04:36:22.354Z,99.29
2018-09-25T04:37:22.371Z,99.86
2018-09-25T04:38:22.722Z,99.99
2018-09-25T04:39:22.820Z,99.99
2018-09-25T04:40:22.955Z,99.99
2018-09-25T04:41:23.163Z,99.99
2018-09-25T04:42:23.590Z,99.99
2018-09-25T04:43:23.394Z,99.99
2018-09-25T04:44:23.732Z,99.99
2018-09-25T04:45:23.921Z,99.99
2018-09-25T04:46:24.087Z,99.99
2018-09-25T04:47:24.069Z,99.99
2018-09-25T04:48:24.459Z,99.99
2018-09-25T04:49:24.694Z,99.99
2018-09-25T04:50:25.205Z,99.99
2018-09-25T04:51:25.254Z,99.99
2018-09-25T04:52:25.228Z,99.99
2018-09-25T04:53:25.445Z,99.99
2018-09-25T04:54:25.438Z,99.99
2018-09-25T04:55:25.854Z,99.99
2018-09-25T04:56:25.837Z,99.99
2018-09-25T04:57:26.087Z,99.99
2018-09-25T04:58:26.813Z,99.99
2018-09-25T04:59:26.345Z,99.99
2018-09-25T05:00:26.520Z,99.99
2018-09-25T05:01:26.817Z,99.99
2018-09-25T05:02:26.875Z,99.10
2018-09-25T05:03:26.997Z,99.86
2018-09-25T05:04:27.247Z,99.86
2018-09-25T05:05:27.423Z,99.20
2018-09-25T05:06:27.429Z,98.72
2018-09-25T05:07:27.668Z,98.63
2018-09-25T05:08:27.925Z,98.54
2018-09-25T05:09:28.123Z,98.35
2018-09-25T05:10:28.227Z,99.29
2018-09-25T05:11:28.440Z,99.29
2018-09-25T05:12:28.431Z,98.63
2018-09-25T05:13:28.632Z,98.54
2018-09-25T05:14:28.846Z,99.29
2018-09-25T05:15:28.867Z,99.58
2018-09-25T05:16:29.334Z,99.48
2018-09-25T05:17:29.199Z,99.29
2018-09-25T05:18:29.515Z,98.72
2018-09-25T05:19:29.640Z,98.72
2018-09-25T05:20:29.748Z,99.29
2018-09-25T05:21:30.035Z,98.54
2018-09-25T05:22:30.303Z,99.20
2018-09-25T05:23:30.565Z,99.48
2018-09-25T05:24:30.520Z,99.67
2018-09-25T05:25:30.646Z,99.86
2018-09-25T05:26:30.868Z,99.48
2018-09-25T05:27:30.899Z,99.48
2018-09-25T05:28:31.360Z,99.99
2018-09-25T05:29:31.493Z,99.99
2018-09-25T05:30:31.477Z,99.48
2018-09-25T05:31:31.615Z,99.67
2018-09-25T05:32:32.030Z,99.86
2018-09-25T05:33:32.219Z,99.01
2018-09-25T05:34:32.360Z,98.72
2018-09-25T05:35:32.498Z,98.54
2018-09-25T05:36:32.701Z,98.54
2018-09-25T05:37:32.728Z,98.25
2018-09-25T05:38:32.936Z,98.35
2018-09-25T05:39:33.231Z,98.63
2018-09-25T05:40:33.368Z,98.44
2018-09-25T05:41:33.463Z,99.39
2018-09-25T05:42:33.739Z,99.01
2018-09-25T05:43:33.834Z,98.63
2018-09-25T05:44:34.203Z,98.63
2018-09-25T05:45:34.360Z,98.72
2018-09-25T05:46:34.190Z,99.01
2018-09-25T05:47:34.476Z,99.20
2018-09-25T05:48:34.788Z,99.20
2018-09-25T05:49:34.696Z,99.10
2018-09-25T05:50:35.054Z,99.10
2018-09-25T05:51:35.223Z,99.10
2018-09-25T05:52:35.399Z,99.01
2018-09-25T05:53:35.452Z,99.29
2018-09-25T05:54:35.701Z,99.48
2018-09-25T05:55:35.843Z,99.99
2018-09-25T05:56:35.948Z,99.10
2018-09-25T05:57:36.134Z,98.54
2018-09-25T05:58:36.438Z,98.16
2018-09-25T05:59:36.504Z,98.06
2018-09-25T06:00:36.706Z,98.25
2018-09-25T06:01:36.921Z,98.54
2018-09-25T06:02:37.000Z,98.72
2018-09-25T06:03:37.396Z,99.01
2018-09-25T06:04:37.357Z,99.48
2018-09-25T06:05:37.522Z,99.29
2018-09-25T06:06:37.779Z,99.39
2018-09-25T06:07:37.937Z,99.99
2018-09-25T06:08:38.213Z,99.99
2018-09-25T06:09:38.332Z,99.99
2018-09-25T06:10:38.433Z,99.99
2018-09-25T06:11:38.599Z,99.99
2018-09-25T06:12:38.743Z,99.99
2018-09-25T06:13:39.004Z,99.63
2018-09-25T06:14:39.817Z,99.53
2018-09-25T06:15:39.432Z,99.63
2018-09-25T06:16:39.495Z,99.82
2018-09-25T06:17:39.955Z,99.99
2018-09-25T06:18:39.901Z,99.99
2018-09-25T06:19:40.171Z,99.99
2018-09-25T06:20:40.390Z,99.99
2018-09-25T06:21:40.596Z,99.72
2018-09-25T06:22:40.969Z,99.25
2018-09-25T06:25:26.138Z,98.63
2018-09-25T06:26:26.275Z,98.30
2018-09-25T06:27:26.743Z,98.63
2018-09-25T06:28:27.115Z,99.30
2018-09-25T06:30:26.876Z,98.07
2018-09-25T06:31:27.438Z,97.73
2018-09-25T06:32:27.615Z,98.21
2018-09-25T06:33:27.797Z,98.16
2018-09-25T06:34:26.332Z,98.07
2018-09-25T06:37:01.473Z,97.50
2018-09-25T06:38:02.844Z,97.69
2018-09-25T06:39:01.641Z,98.07
2018-09-25T06:40:03.315Z,97.40
2018-09-25T06:41:02.273Z,97.02
2018-09-25T06:42:02.797Z,97.31
2018-09-25T06:43:02.820Z,97.31
2018-09-25T06:44:00.908Z,97.59
2018-09-25T06:45:00.250Z,97.50
2018-09-25T06:46:00.277Z,97.21
2018-09-25T06:47:00.900Z,98.07
2018-09-25T06:48:01.899Z,97.88
2018-09-25T06:49:01.022Z,98.07
2018-09-25T06:50:01.108Z,98.54
2018-09-25T06:51:01.169Z,97.78
2018-09-25T06:52:01.526Z,97.74
2018-09-25T06:53:01.492Z,97.26
2018-09-25T06:54:01.640Z,97.26
2018-09-25T06:55:02.238Z,98.11
2018-09-25T06:56:02.057Z,98.49
2018-09-25T06:57:02.233Z,99.06
2018-09-25T06:58:02.391Z,98.78
2018-09-25T06:59:02.569Z,98.40
2018-09-25T07:00:02.619Z,98.02
2018-09-25T07:01:02.889Z,98.11
2018-09-25T07:02:02.951Z,97.26
2018-09-25T07:03:03.090Z,97.07
2018-09-25T07:04:03.192Z,97.07
2018-09-25T07:05:03.606Z,96.97
2018-09-25T07:06:03.874Z,96.88
2018-09-25T07:07:03.985Z,96.78
2018-09-25T07:08:04.043Z,96.78
2018-09-25T07:09:04.225Z,96.97
2018-09-25T07:10:04.739Z,97.74
2018-09-25T07:11:04.805Z,98.11
2018-09-25T07:12:04.713Z,97.88
2018-09-25T07:13:04.866Z,97.97
2018-09-25T07:14:05.070Z,97.78
2018-09-25T07:15:05.315Z,97.78
2018-09-25T07:16:05.464Z,97.78
2018-09-25T07:17:05.542Z,97.78
2018-09-25T07:18:05.866Z,97.31
2018-09-25T07:19:06.011Z,97.50
2018-09-25T07:20:06.516Z,97.64
2018-09-25T07:21:06.292Z,97.17
2018-09-25T07:22:06.464Z,97.55
2018-09-25T07:23:06.606Z,97.27
2018-09-25T07:24:06.697Z,96.88
2018-09-25T07:25:06.878Z,95.65
2018-09-25T07:26:07.222Z,95.65
2018-09-25T07:27:07.438Z,95.70
2018-09-25T07:28:07.399Z,94.84
2018-09-25T07:29:07.598Z,94.37
2018-09-25T07:30:07.718Z,93.04
2018-09-25T07:31:07.950Z,92.13
2018-09-25T07:32:08.884Z,91.08
2018-09-25T07:33:08.522Z,90.42
2018-09-25T07:34:08.521Z,90.42
2018-09-25T07:35:08.641Z,89.85
2018-09-25T07:36:09.021Z,90.04
2018-09-25T07:37:09.030Z,90.52
2018-09-25T07:38:09.678Z,90.70
2018-09-25T07:39:09.323Z,89.80
2018-09-25T07:40:09.466Z,88.89
2018-09-25T07:41:11.128Z,88.13
2018-09-25T07:42:10.181Z,87.37
2018-09-25T07:43:10.472Z,86.65
2018-09-25T07:44:10.795Z,86.18
2018-09-25T07:45:10.380Z,85.08
2018-09-25T07:46:10.514Z,84.22
2018-09-25T07:47:10.814Z,83.07
2018-09-25T07:48:10.974Z,82.41
2018-09-25T07:49:11.062Z,82.35
2018-09-25T07:50:11.429Z,80.44
2018-09-25T07:51:11.336Z,79.53
2018-09-25T07:52:11.644Z,78.96
2018-09-25T07:53:11.607Z,78.73
2018-09-25T07:54:23.223Z,79.11
2018-09-25T07:55:14.772Z,79.68
2018-09-25T07:57:14.473Z,80.16
2018-09-25T07:58:14.892Z,79.72
2018-09-25T07:59:15.510Z,77.91
2018-09-25T08:00:15.414Z,77.53
2018-09-25T08:01:15.879Z,78.77
2018-09-25T08:02:14.397Z,78.77
2018-09-25T08:03:13.259Z,79.30
2018-09-25T08:04:13.353Z,79.68
2018-09-25T08:05:13.555Z,80.54
2018-09-25T08:06:13.706Z,79.82
2018-09-25T08:08:58.368Z,74.40
2018-09-25T08:09:58.906Z,72.72
2018-09-25T08:10:58.847Z,71.32
2018-09-25T08:11:58.524Z,69.44
2018-09-25T08:12:58.882Z,69.35
2018-09-25T08:13:59.306Z,68.58
2018-09-25T08:14:59.447Z,69.15
2018-09-25T08:15:59.909Z,68.90
2018-09-25T08:16:59.537Z,67.18
2018-09-25T08:18:00.065Z,66.51
2018-09-25T08:19:00.382Z,66.89
2018-09-25T08:19:59.899Z,66.83
2018-09-25T08:20:59.826Z,66.48
2018-09-25T08:22:00.343Z,65.52
2018-09-25T08:23:00.836Z,65.01
2018-09-25T08:24:01.809Z,62.42
2018-09-25T08:25:01.524Z,61.69
2018-09-25T08:26:00.777Z,60.72
2018-09-25T08:26:59.434Z,60.63
2018-09-25T08:27:59.083Z,60.44
2018-09-25T08:28:59.235Z,60.92
2018-09-25T08:29:59.344Z,60.85
2018-09-25T08:30:59.476Z,58.77
2018-09-25T08:31:59.687Z,57.81
2018-09-25T08:33:00.562Z,58.03
2018-09-25T08:34:00.092Z,56.91
2018-09-25T08:35:00.389Z,55.56
2018-09-25T08:36:00.508Z,54.60
2018-09-25T08:37:00.744Z,56.33
2018-09-25T08:38:00.875Z,55.85
2018-09-25T08:39:01.127Z,55.34
2018-09-25T08:40:01.165Z,56.91
2018-09-25T08:41:01.292Z,56.14
2018-09-25T08:42:01.519Z,54.24
2018-09-25T08:43:01.688Z,54.60
2018-09-25T08:44:01.920Z,54.05
2018-09-25T08:45:02.228Z,54.89
2018-09-25T08:46:02.529Z,54.99
2018-09-25T08:47:02.422Z,54.31
2018-09-25T08:48:02.498Z,55.05
2018-09-25T08:49:02.659Z,54.63
2018-09-25T08:50:02.843Z,53.47
2018-09-25T08:51:04.395Z,53.54
2018-09-25T08:52:03.129Z,55.05
2018-09-25T08:53:03.324Z,55.66
2018-09-25T08:54:10.717Z,54.99
2018-09-25T08:55:03.638Z,54.31
2018-09-25T08:56:03.811Z,54.02
2018-09-25T08:57:04.079Z,54.50
2018-09-25T08:58:04.240Z,56.33
2018-09-25T08:59:04.420Z,55.34
2018-09-25T09:00:04.496Z,56.21
2018-09-25T09:01:04.765Z,55.05
2018-09-25T09:02:04.830Z,54.69
2018-09-25T09:03:04.927Z,55.11
2018-09-25T09:04:05.134Z,53.25
2018-09-25T09:05:05.455Z,52.70
2018-09-25T09:06:05.612Z,53.59
2018-09-25T09:07:05.751Z,53.50
2018-09-25T09:08:06.704Z,52.34
2018-09-25T09:09:06.082Z,52.03
2018-09-25T09:10:06.190Z,51.86
2018-09-25T09:11:06.363Z,52.44
2018-09-25T09:12:06.529Z,52.20
2018-09-25T09:13:06.783Z,50.83
2018-09-25T09:14:06.830Z,48.90
2018-09-25T09:15:06.998Z,49.38
2018-09-25T09:16:07.140Z,50.09
2018-09-25T09:17:07.327Z,47.03
2018-09-25T09:18:07.448Z,49.73
2018-09-25T09:19:07.699Z,50.18
2018-09-25T09:20:08.052Z,49.79
2018-09-25T09:21:08.799Z,48.76
2018-09-25T09:22:08.233Z,47.97
2018-09-25T09:23:08.504Z,47.87
2018-09-25T09:24:08.617Z,48.83
2018-09-25T09:25:08.895Z,48.64
2018-09-25T09:26:09.048Z,47.41
2018-09-25T09:27:09.218Z,47.60
2018-09-25T09:28:09.353Z,47.67
2018-09-25T09:29:09.556Z,48.44
2018-09-25T09:30:09.697Z,48.47
2018-09-25T09:31:09.859Z,49.34
2018-09-25T09:32:10.102Z,49.70
2018-09-25T09:33:10.246Z,47.99
2018-09-25T09:34:10.865Z,47.41
2018-09-25T09:35:10.556Z,49.24
2018-09-25T09:36:10.666Z,48.21
2018-09-25T09:37:10.968Z,46.59
2018-09-25T09:38:11.018Z,45.94
2018-09-25T09:39:11.271Z,45.65
2018-09-25T09:40:12.107Z,44.90
2018-09-25T09:41:11.767Z,44.70
2018-09-25T09:42:11.817Z,44.12
2018-09-25T09:43:12.023Z,44.73
2018-09-25T09:44:12.148Z,43.08
2018-09-25T09:45:12.390Z,45.14
2018-09-25T09:46:12.470Z,47.24
2018-09-25T09:47:13.245Z,46.95
2018-09-25T09:48:12.742Z,46.56
2018-09-25T09:49:12.976Z,45.34
2018-09-25T09:50:13.256Z,42.73
2018-09-25T09:51:13.324Z,44.52
2018-09-25T09:52:13.523Z,46.01
2018-09-25T09:53:13.687Z,46.28
2018-09-25T09:54:13.838Z,48.59
2018-09-25T09:55:14.133Z,47.56
2018-09-25T09:56:14.212Z,47.49
2018-09-25T09:57:14.424Z,47.99
2018-09-25T09:58:14.575Z,46.47
2018-09-25T09:59:14.781Z,45.65
2018-09-25T10:00:14.893Z,44.34
2018-09-25T10:01:15.049Z,43.52
2018-09-25T10:02:15.417Z,43.43
2018-09-25T10:03:15.506Z,44.22
2018-09-25T10:04:15.634Z,43.74
2018-09-25T10:05:15.839Z,45.04
2018-09-25T10:06:16.004Z,45.48
2018-09-25T10:07:16.243Z,47.65
2018-09-25T10:08:16.308Z,49.17
2018-09-25T10:09:16.528Z,49.22
2018-09-25T10:10:16.704Z,47.63
2018-09-25T10:11:16.762Z,46.01
2018-09-25T10:12:17.156Z,45.00
2018-09-25T10:13:17.245Z,43.37
2018-09-25T10:14:17.363Z,41.89
2018-09-25T10:15:17.797Z,40.73
2018-09-25T10:16:17.670Z,40.86
2018-09-25T10:17:17.995Z,41.61
2018-09-25T10:18:18.112Z,42.54
2018-09-25T10:19:18.189Z,44.37
2018-09-25T10:20:18.492Z,43.94
2018-09-25T10:21:18.594Z,45.15
2018-09-25T10:22:18.719Z,46.09
2018-09-25T10:23:18.998Z,47.53
2018-09-25T10:24:19.088Z,47.22
2018-09-25T10:25:19.256Z,48.64
2018-09-25T10:26:19.462Z,47.82
2018-09-25T10:27:19.669Z,46.55
2018-09-25T10:28:19.753Z,46.25
2018-09-25T10:29:19.928Z,43.54
2018-09-25T10:30:20.119Z,41.97
2018-09-25T10:31:20.228Z,45.49
2018-09-25T10:32:20.423Z,49.48
2018-09-25T10:33:21.176Z,52.53
2018-09-25T10:34:22.678Z,55.86
2018-09-25T10:35:20.961Z,56.92
2018-09-25T10:36:21.058Z,55.19
2018-09-25T10:37:21.328Z,54.78
2018-09-25T10:38:21.531Z,54.75
2018-09-25T10:39:21.659Z,54.30
2018-09-25T10:40:21.829Z,52.46
2018-09-25T10:41:22.165Z,51.23
2018-09-25T10:42:22.445Z,48.21
2018-09-25T10:43:22.367Z,44.89
2018-09-25T10:44:22.520Z,41.46
2018-09-25T10:45:22.732Z,37.54
2018-09-25T10:46:22.852Z,35.63
2018-09-25T10:47:23.156Z,36.22
2018-09-25T10:48:23.363Z,35.26
2018-09-25T10:49:23.473Z,35.86
2018-09-25T10:50:23.686Z,35.78
2018-09-25T10:51:23.776Z,35.78
2018-09-25T10:52:23.925Z,33.73
2018-09-25T10:53:24.253Z,35.39
2018-09-25T10:54:24.368Z,35.12
2018-09-25T10:55:24.575Z,35.13
2018-09-25T10:56:24.672Z,33.69
2018-09-25T10:57:24.772Z,34.83
2018-09-25T10:58:24.956Z,35.36
2018-09-25T10:59:25.163Z,38.51
2018-09-25T11:00:25.439Z,38.95
2018-09-25T11:01:25.577Z,39.59
2018-09-25T11:02:25.767Z,41.47
2018-09-25T11:03:26.016Z,41.74
2018-09-25T11:04:26.109Z,42.68
2018-09-25T11:05:26.230Z,44.89
2018-09-25T11:06:26.409Z,45.64
2018-09-25T11:07:26.600Z,45.32
2018-09-25T11:08:26.811Z,45.90
2018-09-25T11:09:26.973Z,45.40
2018-09-25T11:10:27.149Z,46.24
2018-09-25T11:11:27.418Z,45.47
2018-09-25T11:12:27.503Z,46.81
2018-09-25T11:13:27.630Z,48.54
2018-09-25T11:14:27.826Z,50.92
2018-09-25T11:15:27.946Z,49.48
2018-09-25T11:16:28.176Z,49.76
2018-09-25T11:17:28.335Z,50.34
2018-09-25T11:18:28.578Z,50.03
2018-09-25T11:19:28.633Z,51.65
2018-09-25T11:20:28.880Z,50.79
2018-09-25T11:21:29.016Z,50.79
2018-09-25T11:22:29.239Z,52.71
2018-09-25T11:23:29.297Z,51.51
2018-09-25T11:24:29.786Z,46.98
2018-09-25T11:25:29.724Z,44.07
2018-09-25T11:26:29.864Z,40.95
2018-09-25T11:27:30.730Z,39.29
2018-09-25T11:28:30.405Z,36.52
2018-09-25T11:29:30.628Z,35.18
2018-09-25T11:30:30.678Z,35.72
2018-09-25T11:31:30.818Z,32.99
2018-09-25T11:32:30.982Z,33.44
2018-09-25T11:33:31.194Z,34.31
2018-09-25T11:34:31.383Z,33.76
2018-09-25T11:35:31.549Z,34.41
2018-09-25T11:36:31.614Z,34.86
2018-09-25T11:37:31.870Z,36.38
2018-09-25T11:38:31.995Z,36.75
2018-09-25T11:39:32.193Z,38.45
2018-09-25T11:40:32.315Z,38.99
2018-09-25T11:41:32.513Z,40.03
2018-09-25T11:42:32.630Z,42.30
2018-09-25T11:43:32.839Z,44.51
2018-09-25T11:44:33.029Z,45.83
2018-09-25T11:45:33.150Z,46.96
2018-09-25T11:46:33.358Z,47.15
2018-09-25T11:47:33.632Z,47.99
2018-09-25T11:48:34.044Z,49.91
2018-09-25T11:49:33.886Z,51.23
2018-09-25T11:50:34.080Z,51.23
2018-09-25T11:51:34.236Z,51.71
2018-09-25T11:52:34.399Z,51.78
2018-09-25T11:53:34.536Z,52.23
2018-09-25T11:54:34.771Z,53.19
2018-09-25T11:55:34.860Z,53.26
2018-09-25T11:56:35.136Z,53.36
2018-09-25T11:57:35.171Z,53.83
2018-09-25T11:58:35.535Z,54.86
2018-09-25T11:59:35.581Z,56.13
2018-09-25T12:00:35.688Z,56.90
2018-09-25T12:01:35.840Z,55.85
2018-09-25T12:02:36.049Z,54.99
2018-09-25T12:03:36.208Z,55.18
2018-09-25T12:04:36.472Z,55.75
2018-09-25T12:05:36.638Z,55.01
2018-09-25T12:06:36.732Z,55.87
2018-09-25T12:07:36.889Z,55.87
2018-09-25T12:08:37.118Z,54.82
2018-09-25T12:09:37.240Z,53.28
2018-09-25T12:10:37.373Z,51.10
2018-09-25T12:11:37.526Z,50.65
2018-09-25T12:12:37.714Z,50.42
2018-09-25T12:13:37.942Z,49.93
2018-09-25T12:14:38.026Z,48.61
2018-09-25T12:15:38.176Z,50.05
2018-09-25T12:16:38.423Z,50.08
2018-09-25T12:17:38.491Z,48.69
2018-09-25T12:18:38.771Z,47.97
2018-09-25T12:19:38.885Z,46.11
2018-09-25T12:20:39.083Z,45.01
2018-09-25T12:21:39.336Z,38.87
2018-09-25T12:22:39.457Z,36.12
2018-09-25T12:23:39.616Z,33.92
2018-09-25T12:24:39.793Z,33.65
2018-09-25T12:25:39.878Z,33.65
2018-09-25T12:26:40.166Z,33.80
2018-09-25T12:27:40.181Z,36.18
2018-09-25T12:28:40.396Z,36.72
2018-09-25T12:29:40.576Z,37.95
2018-09-25T12:30:40.807Z,39.26
2018-09-25T12:31:40.904Z,40.66
2018-09-25T12:32:41.166Z,42.55
2018-09-25T12:33:41.258Z,44.07
2018-09-25T12:34:41.545Z,44.70
2018-09-25T12:35:41.656Z,46.89
2018-09-25T12:36:41.831Z,48.40
2018-09-25T12:37:41.991Z,49.43
2018-09-25T12:38:42.169Z,51.25
2018-09-25T12:39:42.397Z,51.90
2018-09-25T12:40:42.552Z,52.19
2018-09-25T12:41:42.713Z,51.04
2018-09-25T12:42:42.856Z,50.94
2018-09-25T12:43:43.101Z,49.21
2018-09-25T12:44:43.222Z,48.33
2018-09-25T12:45:43.454Z,49.00
2018-09-25T12:46:43.499Z,49.19
2018-09-25T12:47:43.892Z,50.05
2018-09-25T12:48:43.965Z,49.52
2018-09-25T12:49:44.122Z,48.76
2018-09-25T12:50:44.320Z,49.33
2018-09-25T12:51:44.433Z,50.65
2018-09-25T12:52:44.624Z,51.25
2018-09-25T12:53:44.767Z,50.49
2018-09-25T12:54:44.942Z,49.15
2018-09-25T12:55:45.094Z,48.40
2018-09-25T12:56:45.241Z,47.46
2018-09-25T12:57:45.382Z,47.44
2018-09-25T12:58:45.622Z,47.05
2018-09-25T12:59:45.836Z,49.55
2018-09-25T13:00:46.094Z,48.11
2018-09-25T13:01:46.104Z,46.14
2018-09-25T13:02:46.331Z,42.32
2018-09-25T13:03:46.531Z,40.92
2018-09-25T13:04:46.679Z,38.64
2018-09-25T13:05:46.875Z,36.18
2018-09-25T13:06:47.055Z,35.64
2018-09-25T13:07:47.161Z,33.64
2018-09-25T13:08:47.340Z,34.39
2018-09-25T13:09:47.514Z,33.92
2018-09-25T13:10:47.668Z,32.75
2018-09-25T13:11:47.857Z,32.36
2018-09-25T13:12:48.094Z,33.23
2018-09-25T13:13:48.198Z,33.52
2018-09-25T13:14:48.478Z,33.06
2018-09-25T13:15:48.684Z,33.17
2018-09-25T13:16:48.789Z,33.07
2018-09-25T13:17:49.031Z,31.15
2018-09-25T13:18:49.091Z,30.19
2018-09-25T13:19:49.268Z,32.44
2018-09-25T13:20:49.508Z,31.97
2018-09-25T13:21:49.591Z,31.68
2018-09-25T13:22:49.868Z,30.68
2018-09-25T13:23:49.928Z,31.16
2018-09-25T13:24:50.137Z,31.08
2018-09-25T13:25:50.377Z,30.66
2018-09-25T13:26:50.512Z,32.34
2018-09-25T13:27:50.687Z,33.94
2018-09-25T13:28:50.968Z,36.69
2018-09-25T13:29:51.107Z,39.94
2018-09-25T13:30:51.320Z,41.82
2018-09-25T13:31:52.133Z,43.71
2018-09-25T13:32:51.661Z,44.55
2018-09-25T13:33:51.797Z,45.39
2018-09-25T13:34:51.922Z,45.56
2018-09-25T13:35:52.175Z,47.46
2018-09-25T13:36:52.318Z,48.69
2018-09-25T13:37:52.594Z,48.85
2018-09-25T13:38:52.669Z,50.17
2018-09-25T13:39:52.971Z,52.95
2018-09-25T13:40:53.124Z,53.24
2018-09-25T13:41:53.227Z,52.19
2018-09-25T13:42:53.513Z,49.88
2018-09-25T13:43:53.674Z,50.05
2018-09-25T13:44:53.814Z,50.73
2018-09-25T13:45:54.015Z,52.23
2018-09-25T13:46:54.109Z,52.45
2018-09-25T13:47:54.419Z,53.31
2018-09-25T13:48:54.468Z,52.52
2018-09-25T13:49:54.762Z,52.14
2018-09-25T13:50:54.857Z,52.04
2018-09-25T13:52:55.198Z,52.33
2018-09-25T13:53:55.354Z,53.28
2018-09-25T13:54:55.496Z,53.19
2018-09-25T13:55:55.795Z,52.91
2018-09-25T13:56:55.897Z,53.86
2018-09-25T13:57:56.073Z,53.48
2018-09-25T13:58:56.257Z,53.22
2018-09-25T13:59:56.321Z,52.69
2018-09-25T14:00:56.569Z,50.20
2018-09-25T14:01:56.716Z,47.89
2018-09-25T14:02:56.883Z,47.22
2018-09-25T14:03:57.044Z,48.38
2018-09-25T14:04:57.266Z,49.50
2018-09-25T14:05:57.391Z,50.17
2018-09-25T14:06:57.599Z,49.96
2018-09-25T14:07:57.757Z,51.30
2018-09-25T14:08:57.933Z,52.07
2018-09-25T14:09:58.070Z,53.38
2018-09-25T14:10:58.193Z,52.93
2018-09-25T14:11:58.349Z,53.19
2018-09-25T14:12:58.600Z,53.19
2018-09-25T14:13:58.726Z,53.19
2018-09-25T14:14:58.913Z,53.38
2018-09-25T14:15:59.133Z,53.26
2018-09-25T14:16:59.212Z,53.16
2018-09-25T14:17:59.481Z,53.45
2018-09-25T14:18:59.637Z,53.16
2018-09-25T14:19:59.780Z,53.74
2018-09-25T14:20:59.992Z,53.55
2018-09-25T14:22:00.176Z,53.16
2018-09-25T14:23:00.672Z,53.64
2018-09-25T14:24:00.537Z,55.53
2018-09-25T14:25:00.719Z,56.90
2018-09-25T14:26:00.922Z,56.51
2018-09-25T14:27:01.807Z,53.52
2018-09-25T14:28:01.542Z,48.97
2018-09-25T14:29:02.124Z,48.61
2018-09-25T14:30:01.808Z,47.12
2018-09-25T14:31:01.702Z,45.58
2018-09-25T14:32:01.876Z,43.89
2018-09-25T14:33:02.134Z,43.60
2018-09-25T14:34:03.446Z,42.54
2018-09-25T14:35:03.046Z,42.73
2018-09-25T14:37:02.833Z,42.36
2018-09-25T14:38:03.004Z,43.04
2018-09-25T14:39:03.299Z,42.94
2018-09-25T14:40:03.290Z,43.91
2018-09-25T14:41:03.508Z,44.27
2018-09-25T14:42:03.898Z,44.76
2018-09-25T14:43:03.824Z,44.25
2018-09-25T14:44:03.996Z,44.71
2018-09-25T14:45:04.332Z,45.83
2018-09-25T14:46:04.419Z,48.11
2018-09-25T14:47:04.597Z,49.24
2018-09-25T14:48:04.783Z,49.99
2018-09-25T14:49:04.914Z,49.48
2018-09-25T14:50:05.197Z,48.79
2018-09-25T14:51:06.943Z,48.57
2018-09-25T14:52:05.583Z,48.83
2018-09-25T14:53:05.637Z,48.35
2018-09-25T14:54:05.943Z,49.12
2018-09-25T14:55:06.044Z,49.10
2018-09-25T14:56:06.302Z,49.10
2018-09-25T14:57:06.403Z,49.48
2018-09-25T14:58:06.595Z,51.95
2018-09-25T14:59:06.719Z,52.07
2018-09-25T15:00:07.023Z,51.08
2018-09-25T15:01:07.748Z,50.79
2018-09-25T15:02:07.387Z,49.29
2018-09-25T15:03:07.737Z,49.86
2018-09-25T15:04:07.723Z,50.34
2018-09-25T15:05:07.890Z,51.10
2018-09-25T15:06:09.157Z,52.04
2018-09-25T15:08:08.450Z,51.28
2018-09-25T15:09:08.587Z,51.08
2018-09-25T15:10:08.751Z,51.37
2018-09-25T15:11:09.005Z,51.08
2018-09-25T15:12:09.106Z,49.26
2018-09-25T15:13:09.329Z,50.03
2018-09-25T15:14:10.321Z,50.22
2018-09-25T15:15:09.776Z,48.71
2018-09-25T15:16:10.599Z,48.61
2018-09-25T15:17:10.046Z,47.85
2018-09-25T15:18:10.185Z,47.46
2018-09-25T15:19:10.448Z,47.15
2018-09-25T15:20:10.636Z,49.19
2018-09-25T15:21:10.772Z,47.34
2018-09-25T15:22:11.373Z,47.06
2018-09-25T15:23:11.127Z,46.48
2018-09-25T15:24:11.296Z,47.15
2018-09-25T15:25:11.694Z,46.77
2018-09-25T15:26:11.606Z,47.06
2018-09-25T15:27:11.849Z,47.82
2018-09-25T15:28:12.401Z,48.59
2018-09-25T15:29:12.189Z,47.34
2018-09-25T15:30:12.595Z,47.34
2018-09-25T15:31:13.335Z,47.63
2018-09-25T15:32:12.700Z,48.40
2018-09-25T15:33:12.826Z,48.40
2018-09-25T15:34:13.229Z,48.97
2018-09-25T15:35:13.892Z,49.07
2018-09-25T15:37:13.537Z,48.30
2018-09-25T15:38:14.622Z,48.21
2018-09-25T15:39:13.845Z,46.86
2018-09-25T15:40:14.063Z,46.29
2018-09-25T15:41:14.708Z,46.86
2018-09-25T15:42:14.305Z,48.69
2018-09-25T15:43:14.532Z,48.49
2018-09-25T15:44:14.702Z,48.59
2018-09-25T15:45:14.916Z,48.78
2018-09-25T15:46:15.847Z,47.82
2018-09-25T15:47:15.222Z,49.16
2018-09-25T15:48:15.407Z,50.22
2018-09-25T15:49:15.578Z,49.55
2018-09-25T15:50:15.829Z,49.36
2018-09-25T15:51:15.866Z,48.40
2018-09-25T15:52:16.814Z,48.30
2018-09-25T15:53:16.222Z,48.69
2018-09-25T15:54:16.341Z,49.24
2018-09-25T15:55:16.577Z,49.05
2018-09-25T15:56:16.822Z,48.85
2018-09-25T15:57:16.940Z,49.52
2018-09-25T15:58:17.029Z,50.10
2018-09-25T15:59:17.224Z,50.20
2018-09-25T16:00:17.468Z,50.87
2018-09-25T16:01:17.560Z,50.96
2018-09-25T16:02:17.843Z,51.13
2018-09-25T16:03:17.997Z,50.74
2018-09-25T16:04:18.321Z,49.79
2018-09-25T16:05:18.431Z,51.79
2018-09-25T16:06:19.285Z,53.33
2018-09-25T16:07:18.732Z,53.62